createdAt,value
2022-12-05T00:00:05.478Z,1.80
2022-12-05T00:02:35.653Z,1.80
2022-12-05T00:05:04.649Z,1.80
2022-12-05T00:07:33.538Z,1.70
2022-12-05T00:10:02.232Z,1.90
2022-12-05T00:12:31.062Z,1.70
2022-12-05T00:14:59.799Z,1.70
2022-12-05T00:17:28.462Z,1.70
2022-12-05T00:19:58.908Z,1.70
2022-12-05T00:22:28.022Z,1.70
2022-12-05T00:24:56.712Z,1.70
2022-12-05T00:27:26.019Z,1.70
2022-12-05T00:29:55.421Z,1.70
2022-12-05T00:32:24.533Z,1.70
2022-12-05T00:34:53.646Z,1.70
2022-12-05T00:37:23.771Z,1.70
2022-12-05T00:39:52.489Z,1.60
2022-12-05T00:42:21.395Z,1.60
2022-12-05T00:44:51.269Z,1.60
2022-12-05T00:47:20.050Z,1.60
2022-12-05T00:49:49.191Z,1.60
2022-12-05T00:52:18.023Z,1.60
2022-12-05T00:54:48.113Z,1.70
2022-12-05T00:57:16.849Z,1.70
2022-12-05T00:59:45.636Z,1.70
2022-12-05T01:02:16.560Z,1.70
2022-12-05T01:04:45.244Z,1.70
2022-12-05T01:07:13.920Z,1.70
2022-12-05T01:09:42.729Z,1.70
2022-12-05T01:12:13.482Z,1.70
2022-12-05T01:14:42.125Z,1.70
2022-12-05T01:17:11.524Z,1.60
2022-12-05T01:19:41.169Z,1.60
2022-12-05T01:22:09.829Z,1.60
2022-12-05T01:24:38.693Z,1.60
2022-12-05T01:27:07.393Z,1.50
2022-12-05T01:29:37.619Z,1.60
2022-12-05T01:32:06.864Z,1.60
2022-12-05T01:34:35.636Z,1.50
2022-12-05T01:37:04.383Z,1.50
2022-12-05T01:39:33.161Z,1.50
2022-12-05T01:42:01.899Z,1.50
2022-12-05T01:45:10.075Z,1.60
2022-12-05T01:47:39.179Z,1.50
2022-12-05T01:50:09.576Z,1.60
2022-12-05T01:52:38.582Z,1.50
2022-12-05T01:55:13.222Z,1.50
2022-12-05T01:57:43.883Z,1.50
2022-12-05T02:00:17.144Z,1.50
2022-12-05T02:02:49.744Z,1.50
2022-12-05T02:05:21.899Z,1.50
2022-12-05T02:07:51.190Z,1.40
2022-12-05T02:10:20.327Z,1.40
2022-12-05T02:12:50.748Z,1.30
2022-12-05T02:15:40.193Z,1.40
2022-12-05T02:18:21.038Z,1.40
2022-12-05T02:21:04.652Z,1.40
2022-12-05T02:24:04.694Z,1.40
2022-12-05T02:26:50.482Z,1.30
2022-12-05T02:29:53.081Z,1.40
2022-12-05T02:32:36.959Z,1.40
2022-12-05T02:35:15.382Z,1.30
2022-12-05T02:37:51.621Z,1.30
2022-12-05T02:40:28.048Z,1.30
2022-12-05T02:43:01.738Z,1.40
2022-12-05T02:45:34.591Z,1.40
2022-12-05T02:48:05.641Z,1.40
2022-12-05T02:50:36.919Z,1.40
2022-12-05T02:53:08.816Z,1.40
2022-12-05T02:55:38.098Z,1.30
2022-12-05T02:58:12.568Z,1.30
2022-12-05T03:00:44.555Z,1.30
2022-12-05T03:03:18.847Z,1.30
2022-12-05T03:05:52.989Z,1.40
2022-12-05T03:08:25.210Z,1.40
2022-12-05T03:10:56.496Z,1.40
2022-12-05T03:13:29.734Z,1.40
2022-12-05T03:16:01.662Z,1.40
2022-12-05T03:18:34.736Z,1.40
2022-12-05T03:21:09.948Z,1.40
2022-12-05T03:23:41.708Z,1.40
2022-12-05T03:26:20.820Z,1.40
2022-12-05T03:28:57.892Z,1.40
2022-12-05T03:31:39.648Z,1.40
2022-12-05T03:34:15.983Z,1.40
2022-12-05T03:36:49.266Z,1.30
2022-12-05T03:39:24.478Z,1.30
2022-12-05T03:42:01.071Z,1.30
2022-12-05T03:44:36.788Z,1.30
2022-12-05T03:47:12.820Z,1.30
2022-12-05T03:49:47.354Z,1.30
2022-12-05T03:52:19.661Z,1.30
2022-12-05T03:54:53.101Z,1.40
2022-12-05T03:57:25.894Z,1.40
2022-12-05T03:59:58.979Z,1.40
2022-12-05T04:02:34.476Z,1.40
2022-12-05T04:05:08.937Z,1.40
2022-12-05T04:07:40.733Z,1.40
2022-12-05T04:10:13.649Z,1.40
2022-12-05T04:12:45.474Z,1.40
2022-12-05T04:15:20.866Z,1.30
2022-12-05T04:17:53.951Z,1.40
2022-12-05T04:20:46.972Z,1.40
2022-12-05T04:23:15.906Z,1.40
2022-12-05T04:25:56.700Z,1.40
2022-12-05T04:28:33.889Z,1.30
2022-12-05T04:31:08.167Z,1.30
2022-12-05T04:33:42.027Z,1.30
2022-12-05T04:36:17.054Z,1.30
2022-12-05T04:38:50.213Z,1.30
2022-12-05T04:41:23.963Z,1.30
2022-12-05T04:43:55.582Z,1.30
2022-12-05T04:46:26.615Z,1.40
2022-12-05T04:49:00.868Z,1.40
2022-12-05T04:51:35.113Z,1.40
2022-12-05T04:54:09.842Z,1.30
2022-12-05T04:56:39.980Z,1.40
2022-12-05T04:59:08.654Z,1.40
2022-12-05T05:01:42.821Z,1.40
2022-12-05T05:04:15.261Z,1.40
2022-12-05T05:06:45.827Z,1.40
2022-12-05T05:09:14.371Z,1.40
2022-12-05T05:11:43.014Z,1.30
2022-12-05T05:14:11.711Z,1.30
2022-12-05T05:16:42.433Z,1.30
2022-12-05T05:19:13.460Z,1.30
2022-12-05T05:21:44.531Z,1.30
2022-12-05T05:24:14.010Z,1.30
2022-12-05T05:26:45.273Z,1.40
2022-12-05T05:29:14.643Z,1.30
2022-12-05T05:31:43.496Z,1.30
2022-12-05T05:34:13.055Z,1.30
2022-12-05T05:36:41.744Z,1.30
2022-12-05T05:39:15.292Z,1.30
2022-12-05T05:41:44.648Z,1.30
2022-12-05T05:44:13.857Z,1.40
2022-12-05T05:46:42.559Z,1.30
2022-12-05T05:49:12.803Z,1.30
2022-12-05T05:51:41.517Z,1.30
2022-12-05T05:54:14.302Z,1.30
2022-12-05T05:56:43.048Z,1.30
2022-12-05T05:59:11.659Z,1.30
2022-12-05T06:01:40.346Z,1.30
2022-12-05T06:04:09.073Z,1.40
2022-12-05T06:06:37.736Z,1.40
2022-12-05T06:09:08.842Z,1.40
2022-12-05T06:11:39.004Z,1.40
2022-12-05T06:14:07.674Z,1.30
2022-12-05T06:16:36.480Z,1.30
2022-12-05T06:19:05.290Z,1.40
2022-12-05T06:21:33.859Z,1.40
2022-12-05T06:24:02.585Z,1.40
2022-12-05T06:26:31.155Z,1.50
2022-12-05T06:29:01.258Z,1.40
2022-12-05T06:31:31.955Z,1.40
2022-12-05T06:34:03.319Z,1.40
2022-12-05T06:36:32.575Z,1.40
2022-12-05T06:39:01.941Z,1.40
2022-12-05T06:41:30.666Z,1.30
2022-12-05T06:44:02.572Z,1.40
2022-12-05T06:46:31.584Z,1.40
2022-12-05T06:49:01.096Z,1.30
2022-12-05T06:51:29.785Z,1.30
2022-12-05T06:53:58.838Z,1.40
2022-12-05T06:56:27.678Z,1.40
2022-12-05T06:58:56.524Z,1.40
2022-12-05T07:01:42.973Z,1.50
2022-12-05T07:04:16.949Z,1.50
2022-12-05T07:06:50.482Z,1.50
2022-12-05T07:09:21.120Z,1.60
2022-12-05T07:11:50.493Z,1.60
2022-12-05T07:14:45.847Z,1.60
2022-12-05T07:17:09.919Z,1.60
2022-12-05T07:19:38.612Z,1.60
2022-12-05T07:22:10.740Z,1.60
2022-12-05T07:24:44.586Z,1.60
2022-12-05T07:27:13.932Z,1.60
2022-12-05T07:29:42.820Z,1.60
2022-12-05T07:32:13.008Z,1.60
2022-12-05T07:34:42.459Z,1.60
2022-12-05T07:37:11.159Z,1.70
2022-12-05T07:39:39.748Z,1.70
2022-12-05T07:42:08.445Z,1.70
2022-12-05T07:44:56.891Z,1.70
2022-12-05T07:47:26.998Z,1.70
2022-12-05T07:49:55.827Z,1.80
2022-12-05T07:52:26.136Z,1.80
2022-12-05T07:54:54.828Z,1.80
2022-12-05T07:57:23.455Z,1.80
2022-12-05T07:59:52.108Z,1.80
2022-12-05T08:02:20.821Z,1.80
2022-12-05T08:04:51.361Z,1.80
2022-12-05T08:07:20.028Z,1.80
2022-12-05T08:10:03.451Z,1.90
2022-12-05T08:12:32.379Z,1.90
2022-12-05T08:15:03.103Z,1.90
2022-12-05T08:17:35.409Z,2.10
2022-12-05T08:20:06.947Z,1.90
2022-12-05T08:22:35.729Z,2.00
2022-12-05T08:25:04.861Z,2.10
2022-12-05T08:27:33.664Z,2.00
2022-12-05T08:30:02.805Z,2.00
2022-12-05T08:32:31.559Z,2.10
2022-12-05T08:35:00.247Z,2.00
2022-12-05T08:37:30.781Z,2.10
2022-12-05T08:39:59.870Z,2.10
2022-12-05T08:42:29.160Z,2.10
2022-12-05T08:44:58.014Z,2.10
2022-12-05T08:47:27.519Z,2.10
2022-12-05T08:49:56.334Z,2.10
2022-12-05T08:52:25.180Z,2.00
2022-12-05T08:54:55.919Z,2.10
2022-12-05T08:57:24.738Z,2.10
2022-12-05T08:59:53.370Z,2.10
2022-12-05T09:02:22.069Z,2.10
2022-12-05T09:04:53.992Z,2.10
2022-12-05T09:07:22.819Z,2.10
2022-12-05T09:09:52.590Z,2.10
2022-12-05T09:12:22.733Z,2.10
2022-12-05T09:14:51.510Z,2.20
2022-12-05T09:17:20.202Z,2.20
2022-12-05T09:19:52.972Z,2.30
2022-12-05T09:22:26.008Z,2.40
2022-12-05T09:24:55.001Z,2.40
2022-12-05T09:27:25.311Z,2.30
2022-12-05T09:29:53.943Z,2.30
2022-12-05T09:32:22.601Z,2.30
2022-12-05T09:34:51.400Z,2.30
2022-12-05T09:37:38.155Z,2.30
2022-12-05T09:40:09.754Z,2.30
2022-12-05T09:42:53.040Z,2.20
2022-12-05T09:45:27.191Z,2.20
2022-12-05T09:48:00.940Z,2.20
2022-12-05T09:50:35.339Z,2.20
2022-12-05T09:53:13.030Z,2.20
2022-12-05T09:55:49.036Z,2.20
2022-12-05T09:58:41.448Z,2.20
2022-12-05T10:01:28.820Z,2.20
2022-12-05T10:04:33.580Z,2.30
2022-12-05T10:07:11.197Z,2.30
2022-12-05T10:09:55.379Z,2.30
2022-12-05T10:12:54.003Z,2.40
2022-12-05T10:15:32.474Z,2.50
2022-12-05T10:18:05.586Z,2.60
2022-12-05T10:20:38.058Z,2.80
2022-12-05T10:23:28.190Z,2.80
2022-12-05T10:26:05.396Z,2.90
2022-12-05T10:28:40.068Z,2.70
2022-12-05T10:31:15.731Z,2.70
2022-12-05T10:33:49.202Z,2.60
2022-12-05T10:36:18.101Z,2.50
2022-12-05T10:38:47.274Z,2.50
2022-12-05T10:41:16.755Z,2.50
2022-12-05T10:43:49.414Z,2.50
2022-12-05T10:46:19.870Z,2.50
2022-12-05T10:48:48.606Z,2.50
2022-12-05T10:51:19.820Z,2.60
2022-12-05T10:53:50.993Z,2.60
2022-12-05T10:56:44.438Z,2.60
2022-12-05T10:59:15.214Z,2.70
2022-12-05T11:01:52.711Z,2.70
2022-12-05T11:04:27.975Z,2.70
2022-12-05T11:07:00.108Z,2.60
2022-12-05T11:09:31.164Z,2.60
2022-12-05T11:12:07.254Z,2.60
2022-12-05T11:14:36.629Z,2.60
2022-12-05T11:17:07.176Z,2.50
2022-12-05T11:19:37.520Z,2.50
2022-12-05T11:22:08.221Z,2.50
2022-12-05T11:24:38.495Z,2.40
2022-12-05T11:27:23.393Z,2.40
2022-12-05T11:30:01.717Z,2.40
2022-12-05T11:32:33.734Z,2.40
2022-12-05T11:35:24.416Z,2.40
2022-12-05T11:37:58.134Z,2.30
2022-12-05T11:40:38.497Z,2.30
2022-12-05T11:43:38.937Z,2.40
2022-12-05T11:46:20.153Z,2.50
2022-12-05T11:49:07.109Z,2.50
2022-12-05T11:51:41.089Z,2.50
2022-12-05T11:57:58.349Z,2.50
2022-12-05T12:00:34.561Z,2.50
2022-12-05T12:03:29.817Z,2.50
2022-12-05T12:06:20.586Z,2.60
2022-12-05T12:09:02.308Z,2.50
2022-12-05T12:11:38.079Z,2.50
2022-12-05T12:14:16.748Z,2.50
2022-12-05T12:16:56.289Z,2.50
2022-12-05T12:19:40.224Z,2.50
2022-12-05T12:22:31.291Z,2.50
2022-12-05T12:25:13.357Z,2.50
2022-12-05T12:27:54.134Z,2.40
2022-12-05T12:30:28.775Z,2.30
2022-12-05T12:33:06.198Z,2.30
2022-12-05T12:35:46.537Z,2.30
2022-12-05T12:38:45.708Z,2.30
2022-12-05T12:41:28.417Z,2.40
2022-12-05T12:44:09.307Z,2.40
2022-12-05T12:46:46.220Z,2.40
2022-12-05T12:49:37.177Z,2.50
2022-12-05T12:52:12.565Z,2.50
2022-12-05T12:55:04.641Z,2.50
2022-12-05T12:57:47.154Z,2.60
2022-12-05T13:00:25.281Z,2.60
2022-12-05T13:03:00.741Z,2.60
2022-12-05T13:05:34.932Z,2.60
2022-12-05T13:08:11.770Z,2.60
2022-12-05T13:10:45.422Z,2.70
2022-12-05T13:13:19.587Z,2.70
2022-12-05T13:15:52.470Z,2.70
2022-12-05T13:18:24.286Z,2.70
2022-12-05T13:20:55.338Z,2.70
2022-12-05T13:23:27.015Z,2.60
2022-12-05T13:26:00.313Z,2.60
2022-12-05T13:28:31.562Z,2.50
2022-12-05T13:31:06.634Z,2.50
2022-12-05T13:33:38.242Z,2.50
2022-12-05T13:36:28.547Z,2.50
2022-12-05T13:39:19.730Z,2.50
2022-12-05T13:42:09.978Z,2.50
2022-12-05T13:44:42.207Z,2.50
2022-12-05T13:47:24.504Z,2.40
2022-12-05T13:49:56.518Z,2.40
2022-12-05T13:52:30.242Z,2.40
2022-12-05T13:55:04.404Z,2.40
2022-12-05T13:57:56.327Z,2.40
2022-12-05T14:00:31.396Z,2.30
2022-12-05T14:03:05.163Z,2.30
2022-12-05T14:05:43.293Z,2.20
2022-12-05T14:08:45.384Z,2.20
2022-12-05T14:11:14.233Z,2.30
2022-12-05T14:13:46.439Z,2.30
2022-12-05T14:16:46.254Z,2.30
2022-12-05T14:20:04.227Z,2.30
2022-12-05T14:22:58.998Z,2.30
2022-12-05T14:25:58.197Z,2.20
2022-12-05T14:28:48.280Z,2.20
2022-12-05T14:31:35.255Z,2.20
2022-12-05T14:34:16.686Z,2.30
2022-12-05T14:36:55.630Z,2.30
2022-12-05T14:39:31.502Z,2.20
2022-12-05T14:42:02.332Z,2.10
2022-12-05T14:44:32.904Z,2.20
2022-12-05T14:47:06.150Z,2.30
2022-12-05T14:50:04.774Z,2.30
2022-12-05T14:52:34.637Z,2.30
2022-12-05T14:55:13.044Z,2.20
2022-12-05T14:57:49.059Z,2.20
2022-12-05T15:00:24.052Z,2.20
2022-12-05T15:02:57.541Z,2.20
2022-12-05T15:05:30.089Z,2.20
2022-12-05T15:08:00.727Z,2.20
2022-12-05T15:10:34.630Z,2.20
2022-12-05T15:13:06.766Z,2.20
2022-12-05T15:15:43.189Z,2.20
2022-12-05T15:18:21.295Z,2.20
2022-12-05T15:20:55.961Z,2.20
2022-12-05T15:23:41.508Z,2.20
2022-12-05T15:29:11.716Z,2.20
2022-12-05T15:31:45.920Z,2.20
2022-12-05T15:34:20.372Z,2.20
2022-12-05T15:36:53.552Z,2.10
2022-12-05T15:39:25.977Z,2.20
2022-12-05T15:41:55.029Z,2.20
2022-12-05T15:44:28.199Z,2.30
2022-12-05T15:46:58.677Z,2.20
2022-12-05T15:49:30.167Z,2.10
2022-12-05T15:52:15.674Z,2.10
2022-12-05T15:54:45.956Z,2.20
2022-12-05T15:57:20.285Z,2.20
2022-12-05T15:59:53.414Z,2.20
2022-12-05T16:02:27.262Z,2.20
2022-12-05T16:04:59.758Z,2.20
2022-12-05T16:07:31.570Z,2.20
2022-12-05T16:10:02.509Z,2.20
2022-12-05T16:12:37.191Z,2.20
2022-12-05T16:15:14.225Z,2.30
2022-12-05T16:17:46.912Z,2.30
2022-12-05T16:20:31.220Z,2.30
2022-12-05T16:23:03.311Z,2.30
2022-12-05T16:25:33.910Z,2.20
2022-12-05T16:28:05.731Z,2.20
2022-12-05T16:30:35.125Z,2.30
2022-12-05T16:33:06.721Z,2.20
2022-12-05T16:35:42.252Z,2.20
2022-12-05T16:38:16.286Z,2.20
2022-12-05T16:40:55.482Z,2.30
2022-12-05T16:43:29.399Z,2.30
2022-12-05T16:46:00.061Z,2.30
2022-12-05T16:48:30.071Z,2.30
2022-12-05T16:51:19.615Z,2.30
2022-12-05T16:53:50.346Z,2.40
2022-12-05T16:56:22.381Z,2.40
2022-12-05T16:58:51.601Z,2.40
2022-12-05T17:01:22.620Z,2.30
2022-12-05T17:03:51.717Z,2.40
2022-12-05T17:06:23.491Z,2.30
2022-12-05T17:08:52.915Z,2.40
2022-12-05T17:11:24.781Z,2.40
2022-12-05T17:13:54.141Z,2.40
2022-12-05T17:16:23.441Z,2.40
2022-12-05T17:18:52.286Z,2.40
2022-12-05T17:21:25.508Z,2.40
2022-12-05T17:23:54.240Z,2.40
2022-12-05T17:26:23.799Z,2.40
2022-12-05T17:28:52.895Z,2.40
2022-12-05T17:31:24.325Z,2.40
2022-12-05T17:33:54.884Z,2.40
2022-12-05T17:36:25.501Z,2.40
2022-12-05T17:38:54.232Z,2.50
2022-12-05T17:41:24.567Z,2.50
2022-12-05T17:43:53.484Z,2.50
2022-12-05T17:46:23.636Z,2.50
2022-12-05T17:48:53.239Z,2.50
2022-12-05T17:51:22.883Z,2.50
2022-12-05T17:53:54.696Z,2.50
2022-12-05T17:56:23.988Z,2.50
2022-12-05T17:58:52.662Z,2.60
2022-12-05T18:01:22.448Z,2.50
2022-12-05T18:03:51.228Z,2.50
2022-12-05T18:06:20.032Z,2.50
2022-12-05T18:08:50.120Z,2.50
2022-12-05T18:11:20.453Z,2.60
2022-12-05T18:13:49.703Z,2.60
2022-12-05T18:16:18.998Z,2.60
2022-12-05T18:18:47.838Z,2.60
2022-12-05T18:21:16.569Z,2.60
2022-12-05T18:23:45.201Z,2.60
2022-12-05T18:26:14.090Z,2.60
2022-12-05T18:28:45.233Z,2.60
2022-12-05T18:31:16.378Z,2.60
2022-12-05T18:33:46.220Z,2.60
2022-12-05T18:36:17.903Z,2.70
2022-12-05T18:38:52.180Z,2.70
2022-12-05T18:41:23.627Z,2.70
2022-12-05T18:43:53.917Z,2.70
2022-12-05T18:46:22.909Z,2.70
2022-12-05T18:48:51.611Z,2.70
2022-12-05T18:51:22.952Z,2.70
2022-12-05T18:53:53.738Z,2.70
2022-12-05T18:56:24.975Z,2.70
2022-12-05T18:58:57.902Z,2.80
2022-12-05T19:01:28.054Z,2.80
2022-12-05T19:03:58.231Z,2.70
2022-12-05T19:06:29.984Z,2.80
2022-12-05T19:09:02.098Z,2.80
2022-12-05T19:11:31.395Z,2.80
2022-12-05T19:14:03.348Z,2.80
2022-12-05T19:16:34.366Z,2.80
2022-12-05T19:19:05.026Z,2.80
2022-12-05T19:21:35.023Z,2.70
2022-12-05T19:24:05.380Z,2.70
2022-12-05T19:26:34.301Z,2.70
2022-12-05T19:29:04.956Z,2.80
2022-12-05T19:31:35.992Z,2.80
2022-12-05T19:34:06.836Z,2.70
2022-12-05T19:36:37.576Z,2.70
2022-12-05T19:39:10.512Z,2.70
2022-12-05T19:41:39.174Z,2.80
2022-12-05T19:44:09.561Z,2.80
2022-12-05T19:46:38.782Z,2.80
2022-12-05T19:49:09.864Z,2.70
2022-12-05T19:51:38.982Z,2.80
2022-12-05T19:54:08.903Z,2.80
2022-12-05T19:56:38.371Z,2.70
2022-12-05T19:59:09.328Z,2.80
2022-12-05T20:01:40.585Z,2.80
2022-12-05T20:04:11.225Z,2.80
2022-12-05T20:06:41.670Z,2.80
2022-12-05T20:09:12.577Z,2.90
2022-12-05T20:11:43.773Z,2.90
2022-12-05T20:14:15.118Z,2.80
2022-12-05T20:16:44.126Z,2.90
2022-12-05T20:19:13.422Z,2.90
2022-12-05T20:21:42.224Z,2.90
2022-12-05T20:24:11.699Z,2.80
2022-12-05T20:26:43.140Z,2.80
2022-12-05T20:29:13.894Z,2.90
2022-12-05T20:31:44.150Z,2.90
2022-12-05T20:34:16.062Z,2.90
2022-12-05T20:36:45.134Z,2.80
2022-12-05T20:39:16.453Z,2.90
2022-12-05T20:41:45.819Z,2.90
2022-12-05T20:44:17.539Z,2.90
2022-12-05T20:46:47.196Z,2.80
2022-12-05T20:49:16.187Z,2.90
2022-12-05T20:51:47.354Z,2.90
2022-12-05T20:54:18.582Z,2.90
2022-12-05T20:56:47.610Z,2.90
2022-12-05T20:59:17.962Z,2.90
2022-12-05T21:01:47.721Z,3.00
2022-12-05T21:04:16.824Z,2.90
2022-12-05T21:06:46.769Z,3.00
2022-12-05T21:09:26.985Z,3.00
2022-12-05T21:11:55.741Z,3.00
2022-12-05T21:14:26.143Z,3.00
2022-12-05T21:16:55.013Z,3.00
2022-12-05T21:19:24.169Z,3.00
2022-12-05T21:21:54.690Z,3.00
2022-12-05T21:24:23.334Z,3.00
2022-12-05T21:26:52.253Z,3.00
2022-12-05T21:29:21.317Z,3.00
2022-12-05T21:31:52.901Z,3.00
2022-12-05T21:34:22.061Z,3.00
2022-12-05T21:36:51.031Z,3.10
2022-12-05T21:39:20.149Z,3.00
2022-12-05T21:41:48.753Z,3.00
2022-12-05T21:44:19.739Z,3.00
2022-12-05T21:46:49.900Z,3.00
2022-12-05T21:49:20.005Z,3.10
2022-12-05T21:51:48.740Z,3.00
2022-12-05T21:54:17.436Z,3.10
2022-12-05T21:56:46.683Z,3.10
2022-12-05T21:59:15.359Z,3.00
2022-12-05T22:01:44.081Z,3.00
2022-12-05T22:04:12.745Z,3.00
2022-12-05T22:06:43.681Z,3.00
2022-12-05T22:09:12.276Z,3.00
2022-12-05T22:11:40.950Z,3.00
2022-12-05T22:14:09.860Z,3.00
2022-12-05T22:16:38.532Z,3.10
2022-12-05T22:19:07.640Z,3.10
2022-12-05T22:21:36.264Z,3.10
2022-12-05T22:24:06.717Z,3.10
2022-12-05T22:26:35.898Z,3.10
2022-12-05T22:29:05.740Z,3.10
2022-12-05T22:31:34.472Z,3.10
2022-12-05T22:34:03.837Z,3.00
2022-12-05T22:36:33.157Z,3.10
2022-12-05T22:39:06.560Z,3.00
2022-12-05T22:41:37.746Z,3.00
2022-12-05T22:44:06.532Z,3.00
2022-12-05T22:46:35.140Z,3.10
2022-12-05T22:49:06.019Z,3.10
2022-12-05T22:51:35.542Z,3.10
2022-12-05T22:54:06.586Z,3.10
2022-12-05T22:56:35.433Z,3.10
2022-12-05T22:59:04.204Z,3.20
2022-12-05T23:01:36.686Z,3.10
2022-12-05T23:04:07.710Z,3.10
2022-12-05T23:06:39.022Z,3.20
2022-12-05T23:09:11.057Z,3.10
2022-12-05T23:11:40.118Z,3.10
2022-12-05T23:14:09.125Z,3.10
2022-12-05T23:16:38.200Z,3.10
2022-12-05T23:19:08.388Z,3.10
2022-12-05T23:21:38.841Z,3.10
2022-12-05T23:24:10.514Z,3.20
2022-12-05T23:26:41.489Z,3.20
2022-12-05T23:29:12.364Z,3.10
2022-12-05T23:31:41.829Z,3.10
2022-12-05T23:34:11.369Z,3.20
2022-12-05T23:36:40.819Z,3.20
2022-12-05T23:39:11.260Z,3.20
2022-12-05T23:41:40.466Z,3.20
2022-12-05T23:44:09.486Z,3.10
2022-12-05T23:46:38.664Z,3.10
2022-12-05T23:49:07.420Z,3.10
2022-12-05T23:51:40.336Z,3.10
2022-12-05T23:54:12.556Z,3.10
2022-12-05T23:56:41.461Z,3.10
2022-12-05T23:59:10.730Z,3.20
